sensor_id;sensor_type;location;lat;lon;timestamp;temperature;humidity
38428;DHT22;24211;49.980;19.776;2022-12-26T00:01:22;4.60;99.90
38428;DHT22;24211;49.980;19.776;2022-12-26T00:03:50;4.60;99.90
38428;DHT22;24211;49.980;19.776;2022-12-26T00:06:25;4.60;99.90
38428;DHT22;24211;49.980;19.776;2022-12-26T00:08:55;4.60;99.90
38428;DHT22;24211;49.980;19.776;2022-12-26T00:11:24;4.60;99.90
38428;DHT22;24211;49.980;19.776;2022-12-26T00:13:56;4.60;99.90
38428;DHT22;24211;49.980;19.776;2022-12-26T00:16:29;4.60;99.90
38428;DHT22;24211;49.980;19.776;2022-12-26T00:18:56;4.60;99.90
38428;DHT22;24211;49.980;19.776;2022-12-26T00:21:24;4.60;99.90
38428;DHT22;24211;49.980;19.776;2022-12-26T00:23:54;4.60;99.90
38428;DHT22;24211;49.980;19.776;2022-12-26T00:26:25;4.60;99.90
38428;DHT22;24211;49.980;19.776;2022-12-26T00:28:56;4.60;99.90
38428;DHT22;24211;49.980;19.776;2022-12-26T00:31:26;4.60;99.90
38428;DHT22;24211;49.980;19.776;2022-12-26T00:33:56;4.40;99.90
38428;DHT22;24211;49.980;19.776;2022-12-26T00:36:27;4.40;99.90
38428;DHT22;24211;49.980;19.776;2022-12-26T00:38:58;4.10;99.90
38428;DHT22;24211;49.980;19.776;2022-12-26T00:41:26;4.10;99.90
38428;DHT22;24211;49.980;19.776;2022-12-26T00:43:54;4.20;99.90
38428;DHT22;24211;49.980;19.776;2022-12-26T00:46:24;4.30;99.90
38428;DHT22;24211;49.980;19.776;2022-12-26T00:48:52;4.30;99.90
38428;DHT22;24211;49.980;19.776;2022-12-26T00:51:20;4.40;99.90
38428;DHT22;24211;49.980;19.776;2022-12-26T00:53:48;4.40;99.90
38428;DHT22;24211;49.980;19.776;2022-12-26T00:56:15;4.40;99.90
38428;DHT22;24211;49.980;19.776;2022-12-26T00:58:42;4.40;99.90
38428;DHT22;24211;49.980;19.776;2022-12-26T01:01:15;4.40;99.90
38428;DHT22;24211;49.980;19.776;2022-12-26T01:03:47;4.40;99.90
38428;DHT22;24211;49.980;19.776;2022-12-26T01:06:17;4.30;99.90
38428;DHT22;24211;49.980;19.776;2022-12-26T01:08:44;4.30;99.90
38428;DHT22;24211;49.980;19.776;2022-12-26T01:11:14;4.30;99.90
38428;DHT22;24211;49.980;19.776;2022-12-26T01:14:03;4.30;99.90
38428;DHT22;24211;49.980;19.776;2022-12-26T01:16:30;4.30;99.90
38428;DHT22;24211;49.980;19.776;2022-12-26T01:19:00;4.30;99.90
38428;DHT22;24211;49.980;19.776;2022-12-26T01:21:27;4.30;99.90
38428;DHT22;24211;49.980;19.776;2022-12-26T01:23:54;4.30;99.90
38428;DHT22;24211;49.980;19.776;2022-12-26T01:26:22;4.30;99.90
38428;DHT22;24211;49.980;19.776;2022-12-26T01:28:50;4.30;99.90
38428;DHT22;24211;49.980;19.776;2022-12-26T01:31:20;4.30;99.90
38428;DHT22;24211;49.980;19.776;2022-12-26T01:33:48;4.30;99.90
38428;DHT22;24211;49.980;19.776;2022-12-26T01:36:16;4.30;99.90
38428;DHT22;24211;49.980;19.776;2022-12-26T01:38:44;4.10;99.90
38428;DHT22;24211;49.980;19.776;2022-12-26T01:41:12;4.20;99.90
38428;DHT22;24211;49.980;19.776;2022-12-26T01:46:43;4.20;99.90
38428;DHT22;24211;49.980;19.776;2022-12-26T01:52:11;4.30;99.90
38428;DHT22;24211;49.980;19.776;2022-12-26T01:54:45;4.00;99.90
38428;DHT22;24211;49.980;19.776;2022-12-26T01:57:20;4.00;99.90
38428;DHT22;24211;49.980;19.776;2022-12-26T01:59:51;4.20;99.90
38428;DHT22;24211;49.980;19.776;2022-12-26T02:02:21;4.20;99.90
38428;DHT22;24211;49.980;19.776;2022-12-26T02:04:51;4.30;99.90
38428;DHT22;24211;49.980;19.776;2022-12-26T02:07:41;4.30;99.90
38428;DHT22;24211;49.980;19.776;2022-12-26T02:10:18;4.30;99.90
38428;DHT22;24211;49.980;19.776;2022-12-26T02:12:50;4.30;99.90
38428;DHT22;24211;49.980;19.776;2022-12-26T02:15:17;4.30;99.90
38428;DHT22;24211;49.980;19.776;2022-12-26T02:17:45;4.30;99.90
38428;DHT22;24211;49.980;19.776;2022-12-26T02:26:06;4.30;99.90
38428;DHT22;24211;49.980;19.776;2022-12-26T02:29:16;4.30;99.90
38428;DHT22;24211;49.980;19.776;2022-12-26T02:44:24;4.30;99.90
38428;DHT22;24211;49.980;19.776;2022-12-26T02:47:45;4.30;99.90
38428;DHT22;24211;49.980;19.776;2022-12-26T02:54:07;4.30;99.90
38428;DHT22;24211;49.980;19.776;2022-12-26T02:57:03;4.30;99.90
38428;DHT22;24211;49.980;19.776;2022-12-26T02:59:53;4.30;99.90
38428;DHT22;24211;49.980;19.776;2022-12-26T03:03:02;4.30;99.90
38428;DHT22;24211;49.980;19.776;2022-12-26T03:08:59;4.30;99.90
38428;DHT22;24211;49.980;19.776;2022-12-26T03:11:51;4.30;99.90
38428;DHT22;24211;49.980;19.776;2022-12-26T03:14:45;4.20;99.90
38428;DHT22;24211;49.980;19.776;2022-12-26T03:17:27;4.10;99.90
38428;DHT22;24211;49.980;19.776;2022-12-26T03:20:11;4.10;99.90
38428;DHT22;24211;49.980;19.776;2022-12-26T03:22:52;4.00;99.90
38428;DHT22;24211;49.980;19.776;2022-12-26T03:28:21;4.00;99.90
38428;DHT22;24211;49.980;19.776;2022-12-26T03:30:50;4.00;99.90
38428;DHT22;24211;49.980;19.776;2022-12-26T03:46:37;4.00;99.90
38428;DHT22;24211;49.980;19.776;2022-12-26T03:49:30;4.10;99.90
38428;DHT22;24211;49.980;19.776;2022-12-26T03:52:55;4.10;99.90
38428;DHT22;24211;49.980;19.776;2022-12-26T03:59:08;4.00;99.90
38428;DHT22;24211;49.980;19.776;2022-12-26T04:02:03;4.00;99.90
38428;DHT22;24211;49.980;19.776;2022-12-26T04:04:53;4.00;99.90
38428;DHT22;24211;49.980;19.776;2022-12-26T04:07:50;3.90;99.90
38428;DHT22;24211;49.980;19.776;2022-12-26T04:10:54;3.90;99.90
38428;DHT22;24211;49.980;19.776;2022-12-26T04:17:00;3.90;99.90
38428;DHT22;24211;49.980;19.776;2022-12-26T04:20:21;3.80;99.90
38428;DHT22;24211;49.980;19.776;2022-12-26T04:26:14;3.90;99.90
38428;DHT22;24211;49.980;19.776;2022-12-26T04:29:06;3.90;99.90
38428;DHT22;24211;49.980;19.776;2022-12-26T04:38:40;3.80;99.90
38428;DHT22;24211;49.980;19.776;2022-12-26T04:41:32;3.90;99.90
38428;DHT22;24211;49.980;19.776;2022-12-26T04:44:20;3.80;99.90
38428;DHT22;24211;49.980;19.776;2022-12-26T04:46:51;3.80;99.90
38428;DHT22;24211;49.980;19.776;2022-12-26T04:49:20;3.80;99.90
38428;DHT22;24211;49.980;19.776;2022-12-26T04:52:09;3.80;99.90
38428;DHT22;24211;49.980;19.776;2022-12-26T04:54:39;3.80;99.90
38428;DHT22;24211;49.980;19.776;2022-12-26T04:57:07;3.80;99.90
38428;DHT22;24211;49.980;19.776;2022-12-26T04:59:34;3.80;99.90
38428;DHT22;24211;49.980;19.776;2022-12-26T05:02:01;3.80;99.90
38428;DHT22;24211;49.980;19.776;2022-12-26T05:04:47;3.80;99.90
38428;DHT22;24211;49.980;19.776;2022-12-26T05:07:34;3.70;99.90
38428;DHT22;24211;49.980;19.776;2022-12-26T05:10:26;3.70;99.90
38428;DHT22;24211;49.980;19.776;2022-12-26T05:12:54;3.70;99.90
38428;DHT22;24211;49.980;19.776;2022-12-26T05:15:22;3.80;99.90
38428;DHT22;24211;49.980;19.776;2022-12-26T05:17:50;3.80;99.90
38428;DHT22;24211;49.980;19.776;2022-12-26T05:20:38;3.70;99.90
38428;DHT22;24211;49.980;19.776;2022-12-26T05:23:18;3.70;99.90
38428;DHT22;24211;49.980;19.776;2022-12-26T05:26:17;3.70;99.90
38428;DHT22;24211;49.980;19.776;2022-12-26T05:29:06;3.70;99.90
38428;DHT22;24211;49.980;19.776;2022-12-26T05:31:34;3.70;99.90
38428;DHT22;24211;49.980;19.776;2022-12-26T05:34:05;3.70;99.90
38428;DHT22;24211;49.980;19.776;2022-12-26T05:36:43;3.70;99.90
38428;DHT22;24211;49.980;19.776;2022-12-26T05:39:13;3.70;99.90
38428;DHT22;24211;49.980;19.776;2022-12-26T05:41:41;3.70;99.90
38428;DHT22;24211;49.980;19.776;2022-12-26T05:44:09;3.70;99.90
38428;DHT22;24211;49.980;19.776;2022-12-26T05:46:37;3.70;99.90
38428;DHT22;24211;49.980;19.776;2022-12-26T05:49:05;3.70;99.90
38428;DHT22;24211;49.980;19.776;2022-12-26T05:51:34;3.60;99.90
38428;DHT22;24211;49.980;19.776;2022-12-26T05:54:02;3.60;99.90
38428;DHT22;24211;49.980;19.776;2022-12-26T05:56:30;3.60;99.90
38428;DHT22;24211;49.980;19.776;2022-12-26T05:58:59;3.60;99.90
38428;DHT22;24211;49.980;19.776;2022-12-26T06:01:29;3.60;99.90
38428;DHT22;24211;49.980;19.776;2022-12-26T06:03:58;3.60;99.90
38428;DHT22;24211;49.980;19.776;2022-12-26T06:06:28;3.60;99.90
38428;DHT22;24211;49.980;19.776;2022-12-26T06:08:55;3.60;99.90
38428;DHT22;24211;49.980;19.776;2022-12-26T06:11:24;3.60;99.90
38428;DHT22;24211;49.980;19.776;2022-12-26T06:13:53;3.60;99.90
38428;DHT22;24211;49.980;19.776;2022-12-26T06:16:20;3.60;99.90
38428;DHT22;24211;49.980;19.776;2022-12-26T06:18:48;3.60;99.90
38428;DHT22;24211;49.980;19.776;2022-12-26T06:21:19;3.60;99.90
38428;DHT22;24211;49.980;19.776;2022-12-26T06:23:47;3.60;99.90
38428;DHT22;24211;49.980;19.776;2022-12-26T06:26:16;3.60;99.90
38428;DHT22;24211;49.980;19.776;2022-12-26T06:28:43;3.60;99.90
38428;DHT22;24211;49.980;19.776;2022-12-26T06:31:15;3.60;99.90
38428;DHT22;24211;49.980;19.776;2022-12-26T06:33:53;3.60;99.90
38428;DHT22;24211;49.980;19.776;2022-12-26T06:36:23;3.60;99.90
38428;DHT22;24211;49.980;19.776;2022-12-26T06:38:52;3.60;99.90
38428;DHT22;24211;49.980;19.776;2022-12-26T06:41:24;3.60;99.90
38428;DHT22;24211;49.980;19.776;2022-12-26T06:43:51;3.60;99.90
38428;DHT22;24211;49.980;19.776;2022-12-26T06:46:21;3.60;99.90
38428;DHT22;24211;49.980;19.776;2022-12-26T06:48:51;3.60;99.90
38428;DHT22;24211;49.980;19.776;2022-12-26T06:51:25;3.60;99.90
38428;DHT22;24211;49.980;19.776;2022-12-26T06:53:52;3.60;99.90
38428;DHT22;24211;49.980;19.776;2022-12-26T06:56:22;3.60;99.90
38428;DHT22;24211;49.980;19.776;2022-12-26T06:58:59;3.60;99.90
38428;DHT22;24211;49.980;19.776;2022-12-26T07:01:31;3.60;99.90
38428;DHT22;24211;49.980;19.776;2022-12-26T07:04:00;3.60;99.90
38428;DHT22;24211;49.980;19.776;2022-12-26T07:06:35;3.60;99.90
38428;DHT22;24211;49.980;19.776;2022-12-26T07:09:06;3.60;99.90
38428;DHT22;24211;49.980;19.776;2022-12-26T07:11:37;3.60;99.90
38428;DHT22;24211;49.980;19.776;2022-12-26T07:14:06;3.60;99.90
38428;DHT22;24211;49.980;19.776;2022-12-26T07:16:35;3.50;99.90
38428;DHT22;24211;49.980;19.776;2022-12-26T07:19:04;3.50;99.90
38428;DHT22;24211;49.980;19.776;2022-12-26T07:21:32;3.50;99.90
38428;DHT22;24211;49.980;19.776;2022-12-26T07:24:12;3.60;99.90
38428;DHT22;24211;49.980;19.776;2022-12-26T07:26:43;3.60;99.90
38428;DHT22;24211;49.980;19.776;2022-12-26T07:29:12;3.60;99.90
38428;DHT22;24211;49.980;19.776;2022-12-26T07:31:40;3.60;99.90
38428;DHT22;24211;49.980;19.776;2022-12-26T07:34:08;3.60;99.90
38428;DHT22;24211;49.980;19.776;2022-12-26T07:41:07;3.60;99.90
38428;DHT22;24211;49.980;19.776;2022-12-26T07:45:42;3.60;99.90
38428;DHT22;24211;49.980;19.776;2022-12-26T07:48:52;3.60;99.90
38428;DHT22;24211;49.980;19.776;2022-12-26T07:51:20;3.70;99.90
38428;DHT22;24211;49.980;19.776;2022-12-26T07:53:48;3.60;99.90
38428;DHT22;24211;49.980;19.776;2022-12-26T07:56:16;3.70;99.90
38428;DHT22;24211;49.980;19.776;2022-12-26T07:58:47;3.60;99.90
38428;DHT22;24211;49.980;19.776;2022-12-26T08:01:15;3.60;99.90
38428;DHT22;24211;49.980;19.776;2022-12-26T08:03:43;3.60;99.90
38428;DHT22;24211;49.980;19.776;2022-12-26T08:06:11;3.60;99.90
38428;DHT22;24211;49.980;19.776;2022-12-26T08:08:38;3.60;99.90
38428;DHT22;24211;49.980;19.776;2022-12-26T08:16:06;3.70;99.90
38428;DHT22;24211;49.980;19.776;2022-12-26T08:18:35;3.70;99.90
38428;DHT22;24211;49.980;19.776;2022-12-26T08:21:21;3.80;99.90
38428;DHT22;24211;49.980;19.776;2022-12-26T08:24:09;3.80;99.90
38428;DHT22;24211;49.980;19.776;2022-12-26T08:27:31;3.80;99.90
38428;DHT22;24211;49.980;19.776;2022-12-26T08:29:59;3.90;99.90
38428;DHT22;24211;49.980;19.776;2022-12-26T08:32:27;3.90;99.90
38428;DHT22;24211;49.980;19.776;2022-12-26T08:34:54;3.90;99.90
38428;DHT22;24211;49.980;19.776;2022-12-26T08:37:22;3.90;99.90
38428;DHT22;24211;49.980;19.776;2022-12-26T08:40:05;3.90;99.90
38428;DHT22;24211;49.980;19.776;2022-12-26T08:47:56;4.00;99.90
38428;DHT22;24211;49.980;19.776;2022-12-26T08:50:33;4.00;99.90
38428;DHT22;24211;49.980;19.776;2022-12-26T08:53:13;4.10;99.90
38428;DHT22;24211;49.980;19.776;2022-12-26T08:55:41;4.10;99.90
38428;DHT22;24211;49.980;19.776;2022-12-26T10:04:08;5.00;99.90
38428;DHT22;24211;49.980;19.776;2022-12-26T10:07:11;5.20;99.90
38428;DHT22;24211;49.980;19.776;2022-12-26T10:10:13;5.20;99.90
38428;DHT22;24211;49.980;19.776;2022-12-26T10:16:01;5.30;99.90
38428;DHT22;24211;49.980;19.776;2022-12-26T10:22:18;5.30;99.90
38428;DHT22;24211;49.980;19.776;2022-12-26T10:24:52;5.40;99.90
38428;DHT22;24211;49.980;19.776;2022-12-26T10:28:15;5.50;99.90
38428;DHT22;24211;49.980;19.776;2022-12-26T10:31:38;5.50;99.90
38428;DHT22;24211;49.980;19.776;2022-12-26T10:51:02;5.80;99.90
38428;DHT22;24211;49.980;19.776;2022-12-26T11:20:38;6.30;99.90
38428;DHT22;24211;49.980;19.776;2022-12-26T11:27:57;6.50;99.90
38428;DHT22;24211;49.980;19.776;2022-12-26T11:30:32;6.50;99.90
38428;DHT22;24211;49.980;19.776;2022-12-26T11:36:37;6.70;99.90
38428;DHT22;24211;49.980;19.776;2022-12-26T11:39:00;6.70;99.90
38428;DHT22;24211;49.980;19.776;2022-12-26T11:45:52;6.90;99.90
38428;DHT22;24211;49.980;19.776;2022-12-26T11:54:21;7.00;99.90
38428;DHT22;24211;49.980;19.776;2022-12-26T11:58:21;7.00;99.90
38428;DHT22;24211;49.980;19.776;2022-12-26T12:29:15;7.50;99.90
38428;DHT22;24211;49.980;19.776;2022-12-26T12:32:57;7.60;99.90
38428;DHT22;24211;49.980;19.776;2022-12-26T12:37:06;7.70;99.90
38428;DHT22;24211;49.980;19.776;2022-12-26T13:20:21;8.00;99.90
38428;DHT22;24211;49.980;19.776;2022-12-26T13:33:42;8.00;99.90
38428;DHT22;24211;49.980;19.776;2022-12-26T13:41:08;8.00;99.90
38428;DHT22;24211;49.980;19.776;2022-12-26T14:36:43;7.70;99.90
38428;DHT22;24211;49.980;19.776;2022-12-26T14:39:55;7.70;99.90
38428;DHT22;24211;49.980;19.776;2022-12-26T14:47:13;7.70;99.90
38428;DHT22;24211;49.980;19.776;2022-12-26T14:53:34;7.70;99.90
38428;DHT22;24211;49.980;19.776;2022-12-26T15:59:58;7.70;99.90
38428;DHT22;24211;49.980;19.776;2022-12-26T16:11:55;7.70;99.90
38428;DHT22;24211;49.980;19.776;2022-12-26T16:54:46;7.60;99.90
38428;DHT22;24211;49.980;19.776;2022-12-26T17:00:32;7.60;99.90
38428;DHT22;24211;49.980;19.776;2022-12-26T17:09:30;7.60;99.90
38428;DHT22;24211;49.980;19.776;2022-12-26T17:12:25;7.70;99.90
38428;DHT22;24211;49.980;19.776;2022-12-26T17:15:28;7.70;99.90
38428;DHT22;24211;49.980;19.776;2022-12-26T17:24:50;7.60;99.90
38428;DHT22;24211;49.980;19.776;2022-12-26T17:27:23;7.60;99.90
38428;DHT22;24211;49.980;19.776;2022-12-26T17:32:46;7.60;99.90
38428;DHT22;24211;49.980;19.776;2022-12-26T17:35:22;7.60;99.90
38428;DHT22;24211;49.980;19.776;2022-12-26T17:38:16;7.60;99.90
38428;DHT22;24211;49.980;19.776;2022-12-26T17:40:48;7.60;99.90
38428;DHT22;24211;49.980;19.776;2022-12-26T17:43:29;7.70;99.90
38428;DHT22;24211;49.980;19.776;2022-12-26T17:46:00;7.60;99.90
38428;DHT22;24211;49.980;19.776;2022-12-26T17:48:28;7.60;99.90
38428;DHT22;24211;49.980;19.776;2022-12-26T17:50:58;7.60;99.90
38428;DHT22;24211;49.980;19.776;2022-12-26T17:54:21;7.60;99.90
38428;DHT22;24211;49.980;19.776;2022-12-26T20:43:12;8.40;99.90
38428;DHT22;24211;49.980;19.776;2022-12-26T21:42:18;8.40;99.90
38428;DHT22;24211;49.980;19.776;2022-12-26T21:59:42;8.30;99.90
38428;DHT22;24211;49.980;19.776;2022-12-26T22:21:52;8.40;99.90
38428;DHT22;24211;49.980;19.776;2022-12-26T22:24:46;8.40;99.90
38428;DHT22;24211;49.980;19.776;2022-12-26T22:27:13;8.40;99.90
38428;DHT22;24211;49.980;19.776;2022-12-26T22:29:41;8.40;99.90
38428;DHT22;24211;49.980;19.776;2022-12-26T22:37:56;8.40;99.90
38428;DHT22;24211;49.980;19.776;2022-12-26T22:49:39;8.50;99.90
38428;DHT22;24211;49.980;19.776;2022-12-26T22:52:11;8.50;99.90
38428;DHT22;24211;49.980;19.776;2022-12-26T22:54:42;8.50;99.90
38428;DHT22;24211;49.980;19.776;2022-12-26T22:57:11;8.50;99.90
38428;DHT22;24211;49.980;19.776;2022-12-26T22:59:40;8.60;99.90
38428;DHT22;24211;49.980;19.776;2022-12-26T23:02:27;8.60;99.90
38428;DHT22;24211;49.980;19.776;2022-12-26T23:04:55;8.60;99.90
38428;DHT22;24211;49.980;19.776;2022-12-26T23:07:22;8.60;99.90
38428;DHT22;24211;49.980;19.776;2022-12-26T23:09:50;8.60;99.90
38428;DHT22;24211;49.980;19.776;2022-12-26T23:12:18;8.60;99.90
38428;DHT22;24211;49.980;19.776;2022-12-26T23:15:05;8.60;99.90
38428;DHT22;24211;49.980;19.776;2022-12-26T23:17:36;8.60;99.90
38428;DHT22;24211;49.980;19.776;2022-12-26T23:20:28;8.60;99.90
38428;DHT22;24211;49.980;19.776;2022-12-26T23:23:18;8.60;99.90
38428;DHT22;24211;49.980;19.776;2022-12-26T23:25:46;8.60;99.90
38428;DHT22;24211;49.980;19.776;2022-12-26T23:28:13;8.60;99.90
38428;DHT22;24211;49.980;19.776;2022-12-26T23:31:00;8.60;99.90
38428;DHT22;24211;49.980;19.776;2022-12-26T23:33:30;8.60;99.90
38428;DHT22;24211;49.980;19.776;2022-12-26T23:35:58;8.60;99.90
38428;DHT22;24211;49.980;19.776;2022-12-26T23:38:26;8.60;99.90
38428;DHT22;24211;49.980;19.776;2022-12-26T23:40:54;8.60;99.90
38428;DHT22;24211;49.980;19.776;2022-12-26T23:43:21;8.60;99.90
38428;DHT22;24211;49.980;19.776;2022-12-26T23:45:48;8.60;99.90
38428;DHT22;24211;49.980;19.776;2022-12-26T23:48:15;8.60;99.90
38428;DHT22;24211;49.980;19.776;2022-12-26T23:50:42;8.60;99.90
38428;DHT22;24211;49.980;19.776;2022-12-26T23:53:16;8.60;99.90
38428;DHT22;24211;49.980;19.776;2022-12-26T23:56:18;8.60;99.90
38428;DHT22;24211;49.980;19.776;2022-12-26T23:58:45;8.60;99.90
